[2025-03-03 00:00:00, 2025-03-03 23:59:59] previous next
| time | temperature | air pressure | humidity | solar radiation | wind speed |
|---|---|---|---|---|---|
| 2025-03-03 07:19:20 | -1.1 | 1020.5 | 99.0 | 20.1 | 0.0 |
| 2025-03-03 07:39:20 | -0.7 | 1020.8 | 99.0 | 24.4 | 0.0 |
| 2025-03-03 07:59:22 | -0.3 | 1020.8 | 99.0 | 28.6 | 0.0 |
| 2025-03-03 08:19:19 | 1.5 | 1021.2 | 99.0 | 32.6 | 0.0 |
| 2025-03-03 08:39:20 | 2.9 | 1021.2 | 99.0 | 34.1 | 0.0 |
| 2025-03-03 08:59:20 | 6.8 | 1021.5 | 79.0 | 39.3 | 0.1 |
| 2025-03-03 09:19:20 | 7.1 | 1021.5 | 79.0 | 49.1 | 0.0 |
| 2025-03-03 09:39:20 | 9.2 | 1021.5 | 73.0 | 63.7 | 0.0 |
| 2025-03-03 09:59:20 | 10.3 | 1021.5 | 68.0 | 84.1 | 1.3 |
| 2025-03-03 10:19:20 | 11.3 | 1021.5 | 66.0 | 56.8 | 1.0 |
| 2025-03-03 10:39:20 | 11.5 | 1021.5 | 62.0 | 48.9 | 0.0 |
| 2025-03-03 10:59:21 | 9.3 | 1021.5 | 67.0 | 46.2 | 1.3 |
| 2025-03-03 11:19:20 | 9.4 | 1021.5 | 69.0 | 230.5 | 1.3 |
| 2025-03-03 11:39:19 | 9.6 | 1021.2 | 65.0 | 272.5 | 1.4 |
| 2025-03-03 11:59:19 | 10.0 | 1020.8 | 61.0 | 297.6 | 0.0 |
| 2025-03-03 12:19:20 | 10.0 | 1020.8 | 61.0 | 303.5 | 1.5 |
| 2025-03-03 12:39:22 | 10.4 | 1020.5 | 61.0 | 315.8 | 1.0 |
| 2025-03-03 12:59:20 | 11.2 | 1020.5 | 60.0 | 319.0 | 1.5 |
| 2025-03-03 13:19:21 | 11.3 | 1019.8 | 57.0 | 321.1 | 0.1 |
| 2025-03-03 13:39:20 | 11.9 | 1019.8 | 53.0 | 309.6 | 0.0 |
| 2025-03-03 13:59:20 | 11.8 | 1019.5 | 56.0 | 301.9 | 1.5 |
| 2025-03-03 14:19:20 | 12.0 | 1019.5 | 54.0 | 295.0 | 0.0 |
| 2025-03-03 14:39:20 | 13.7 | 1019.1 | 48.0 | 284.9 | 0.0 |
| 2025-03-03 14:59:20 | 13.7 | 1019.1 | 49.0 | 270.4 | 0.1 |
| 2025-03-03 15:19:20 | 12.8 | 1019.1 | 51.0 | 249.8 | 0.0 |
| 2025-03-03 15:39:20 | 12.5 | 1018.8 | 53.0 | 220.2 | 0.0 |
| 2025-03-03 15:59:19 | 12.2 | 1018.8 | 57.0 | 181.9 | 0.0 |
CSV export: /station/IWELLEN5/data?period=20250303T000000/20250303T235959&format=csv&tz=GMT